Station: ELLX - 22/10/2021 08:20Z (il y a 27 minutes)
ELLX 220820Z 22007KT 190V250 9999 FEW002 04/03 Q1019 NOSIG
Vent du 220º - 7 kt (vent de direction variable de 190º à 250º)
Visibilité > 10 km
Nuages épars à 200 pieds
Température: +04ºC - Point de rosée: +03ºC - QNH: 1019 hPa
Pas de changement significatif prévu dans les 2 heures qui suivent l'observation